createdAt,value
2022-11-02T00:01:40.726Z,7.07
2022-11-02T00:04:19.311Z,7.28
2022-11-02T00:06:48.805Z,6.65
2022-11-02T00:09:18.145Z,6.65
2022-11-02T00:11:47.572Z,6.63
2022-11-02T00:14:28.443Z,6.82
2022-11-02T00:16:57.944Z,7.00
2022-11-02T00:19:28.611Z,8.07
2022-11-02T00:21:58.980Z,8.05
2022-11-02T00:24:28.470Z,7.88
2022-11-02T00:26:58.402Z,8.25
2022-11-02T00:29:30.025Z,8.07
2022-11-02T00:32:03.319Z,8.13
2022-11-02T00:34:34.022Z,7.78
2022-11-02T00:37:03.744Z,8.07
2022-11-02T00:39:33.285Z,7.15
2022-11-02T00:42:02.830Z,8.05
2022-11-02T00:44:32.177Z,8.20
2022-11-02T00:47:01.768Z,8.40
2022-11-02T00:49:38.546Z,7.85
2022-11-02T00:52:09.202Z,8.02
2022-11-02T00:54:38.598Z,7.90
2022-11-02T00:57:08.344Z,8.32
2022-11-02T00:59:40.155Z,8.20
2022-11-02T01:02:10.607Z,7.75
2022-11-02T01:04:41.462Z,7.75
2022-11-02T01:07:10.983Z,7.70
2022-11-02T01:09:40.262Z,7.82
2022-11-02T01:12:09.936Z,7.80
2022-11-02T01:14:39.139Z,10.30
2022-11-02T01:17:09.456Z,8.00
2022-11-02T01:19:40.142Z,8.23
2022-11-02T01:22:10.057Z,9.02
2022-11-02T01:24:39.462Z,8.35
2022-11-02T01:27:08.911Z,7.63
2022-11-02T01:29:39.212Z,8.50
2022-11-02T01:32:08.743Z,9.75
2022-11-02T01:34:38.153Z,7.93
2022-11-02T01:37:09.116Z,8.93
2022-11-02T01:39:38.353Z,8.40
2022-11-02T01:42:19.621Z,9.25
2022-11-02T01:44:49.109Z,8.98
2022-11-02T01:47:23.865Z,10.68
2022-11-02T01:49:58.514Z,10.05
2022-11-02T01:52:32.639Z,11.38
2022-11-02T01:55:06.079Z,12.13
2022-11-02T01:57:36.984Z,10.25
2022-11-02T02:00:09.259Z,10.70
2022-11-02T02:02:49.766Z,10.40
2022-11-02T02:05:21.967Z,9.00
2022-11-02T02:07:55.058Z,10.43
2022-11-02T02:10:24.572Z,10.00
2022-11-02T02:12:54.087Z,9.63
2022-11-02T02:15:26.501Z,12.00
2022-11-02T02:18:01.600Z,8.23
2022-11-02T02:20:51.698Z,9.05
2022-11-02T02:23:55.895Z,8.63
2022-11-02T02:26:59.870Z,9.82
2022-11-02T02:29:45.639Z,8.23
2022-11-02T02:32:22.406Z,8.43
2022-11-02T02:34:56.468Z,10.02
2022-11-02T02:37:32.326Z,8.50
2022-11-02T02:40:07.179Z,9.13
2022-11-02T02:42:48.741Z,8.68
2022-11-02T02:45:25.936Z,10.00
2022-11-02T02:48:02.504Z,9.88
2022-11-02T02:50:38.588Z,8.80
2022-11-02T02:53:09.656Z,10.50
2022-11-02T02:55:44.569Z,7.85
2022-11-02T02:58:18.539Z,9.27
2022-11-02T03:00:49.993Z,8.93
2022-11-02T03:03:22.130Z,9.23
2022-11-02T03:06:11.612Z,9.50
2022-11-02T03:08:47.462Z,11.55
2022-11-02T03:11:19.306Z,7.43
2022-11-02T03:14:06.854Z,8.35
2022-11-02T03:17:04.378Z,6.90
2022-11-02T03:19:43.305Z,6.40
2022-11-02T03:22:22.519Z,7.85
2022-11-02T03:25:00.375Z,11.02
2022-11-02T03:27:41.235Z,7.70
2022-11-02T03:35:20.641Z,6.95
2022-11-02T03:37:57.008Z,10.20
2022-11-02T03:40:30.746Z,12.73
2022-11-02T03:43:05.655Z,13.20
2022-11-02T03:45:41.503Z,12.60
2022-11-02T03:48:13.914Z,12.20
2022-11-02T03:50:47.847Z,12.70
2022-11-02T03:53:23.895Z,11.73
2022-11-02T03:58:23.909Z,10.18
2022-11-02T04:00:57.411Z,9.57
2022-11-02T04:03:26.912Z,9.70
2022-11-02T04:05:58.367Z,8.90
2022-11-02T04:08:38.141Z,9.60
2022-11-02T04:11:28.145Z,9.60
2022-11-02T04:14:20.096Z,9.95
2022-11-02T04:16:49.566Z,9.75
2022-11-02T04:19:27.800Z,11.80
2022-11-02T04:22:20.229Z,11.40
2022-11-02T04:25:11.483Z,10.88
2022-11-02T04:27:42.109Z,10.70
2022-11-02T04:30:13.553Z,11.77
2022-11-02T04:33:01.311Z,11.68
2022-11-02T04:35:35.386Z,11.05
2022-11-02T04:38:24.211Z,10.85
2022-11-02T04:41:14.040Z,9.93
2022-11-02T04:43:44.479Z,10.60
2022-11-02T04:46:16.333Z,12.13
2022-11-02T04:48:46.669Z,11.65
2022-11-02T04:51:17.149Z,9.68
2022-11-02T04:53:48.415Z,12.50
2022-11-02T04:56:18.766Z,9.10
2022-11-02T04:58:51.687Z,8.23
2022-11-02T05:01:22.123Z,8.35
2022-11-02T05:03:53.029Z,7.40
2022-11-02T05:06:24.937Z,8.10
2022-11-02T05:08:57.689Z,7.50
2022-11-02T05:11:28.121Z,6.97
2022-11-02T05:13:58.366Z,7.97
2022-11-02T05:16:27.825Z,8.32
2022-11-02T05:18:58.607Z,7.13
2022-11-02T05:21:28.914Z,7.35
2022-11-02T05:24:00.357Z,6.43
2022-11-02T05:26:30.127Z,8.52
2022-11-02T05:28:59.477Z,9.50
2022-11-02T05:31:28.938Z,10.77
2022-11-02T05:33:59.807Z,10.65
2022-11-02T05:36:29.356Z,11.02
2022-11-02T05:39:00.802Z,11.45
2022-11-02T05:41:30.529Z,11.43
2022-11-02T05:44:01.519Z,11.27
2022-11-02T05:46:33.614Z,12.82
2022-11-02T05:49:02.827Z,11.77
2022-11-02T05:51:32.392Z,12.05
2022-11-02T05:54:03.054Z,11.98
2022-11-02T05:56:32.487Z,11.93
2022-11-02T05:59:01.763Z,13.93
2022-11-02T06:01:31.356Z,12.02
2022-11-02T06:04:00.833Z,13.05
2022-11-02T06:06:30.190Z,11.98
2022-11-02T06:09:02.946Z,12.55
2022-11-02T06:11:37.845Z,13.30
2022-11-02T06:14:07.085Z,12.30
2022-11-02T06:16:36.500Z,11.50
2022-11-02T06:19:05.859Z,12.07
2022-11-02T06:21:35.500Z,13.75
2022-11-02T06:24:04.921Z,12.18
2022-11-02T06:26:34.463Z,11.88
2022-11-02T06:29:05.213Z,13.18
2022-11-02T06:31:34.747Z,12.98
2022-11-02T06:34:04.053Z,13.38
2022-11-02T06:36:33.542Z,12.50
2022-11-02T06:39:03.118Z,13.27
2022-11-02T06:41:32.720Z,11.55
2022-11-02T06:44:03.453Z,11.52
2022-11-02T06:46:32.945Z,11.75
2022-11-02T06:49:02.484Z,11.65
2022-11-02T06:51:32.129Z,12.10
2022-11-02T06:54:07.428Z,11.27
2022-11-02T06:56:38.182Z,12.57
2022-11-02T06:59:08.891Z,11.93
2022-11-02T07:01:38.593Z,11.73
2022-11-02T07:04:08.002Z,12.05
2022-11-02T07:06:37.590Z,11.98
2022-11-02T07:09:06.881Z,11.90
2022-11-02T07:11:36.389Z,13.32
2022-11-02T07:14:07.113Z,12.18
2022-11-02T07:16:36.582Z,12.20
2022-11-02T07:19:06.155Z,12.07
2022-11-02T07:21:35.783Z,12.90
2022-11-02T07:24:05.275Z,13.48
2022-11-02T07:26:34.710Z,11.90
2022-11-02T07:29:03.886Z,11.77
2022-11-02T07:31:34.785Z,12.43
2022-11-02T07:34:04.230Z,12.90
2022-11-02T07:36:33.708Z,12.38
2022-11-02T07:39:02.996Z,12.48
2022-11-02T07:41:32.616Z,12.05
2022-11-02T07:44:02.322Z,11.50
2022-11-02T07:46:53.314Z,12.30
2022-11-02T07:49:22.664Z,11.20
2022-11-02T07:51:52.168Z,10.68
2022-11-02T07:54:21.428Z,12.13
2022-11-02T07:56:50.955Z,11.98
2022-11-02T07:59:20.347Z,11.40
2022-11-02T08:01:50.046Z,11.13
2022-11-02T08:06:55.035Z,13.30
2022-11-02T08:09:24.366Z,12.07
2022-11-02T08:12:11.642Z,10.93
2022-11-02T08:14:40.948Z,9.15
2022-11-02T08:17:10.594Z,8.55
2022-11-02T08:19:41.607Z,9.52
2022-11-02T08:22:10.919Z,8.48
2022-11-02T08:24:40.442Z,8.77
2022-11-02T08:27:09.776Z,9.20
2022-11-02T08:29:39.312Z,8.10
2022-11-02T08:32:08.549Z,8.70
2022-11-02T08:34:38.081Z,7.90
2022-11-02T08:37:10.680Z,8.38
2022-11-02T08:39:40.381Z,7.45
2022-11-02T08:42:09.840Z,7.43
2022-11-02T08:44:42.496Z,6.70
2022-11-02T08:47:12.335Z,6.72
2022-11-02T08:49:41.885Z,7.30
2022-11-02T08:52:12.755Z,7.13
2022-11-02T08:54:42.260Z,6.85
2022-11-02T08:57:11.600Z,6.10
2022-11-02T08:59:41.292Z,7.07
2022-11-02T09:02:12.369Z,6.60
2022-11-02T09:04:42.077Z,6.50
2022-11-02T09:07:12.705Z,6.22
2022-11-02T09:09:42.350Z,8.00
2022-11-02T09:12:11.581Z,6.75
2022-11-02T09:14:41.229Z,5.78
2022-11-02T09:17:10.656Z,5.72
2022-11-02T09:19:40.366Z,5.50
2022-11-02T09:22:11.093Z,5.60
2022-11-02T09:24:40.703Z,5.15
2022-11-02T09:27:09.967Z,5.28
2022-11-02T09:29:39.661Z,5.70
2022-11-02T09:32:09.093Z,5.38
2022-11-02T09:34:38.753Z,5.72
2022-11-02T09:37:08.182Z,5.78
2022-11-02T09:39:39.138Z,6.03
2022-11-02T09:42:20.690Z,6.20
2022-11-02T09:44:55.789Z,5.88
2022-11-02T09:48:10.935Z,6.10
2022-11-02T09:50:22.144Z,5.72
2022-11-02T09:52:56.726Z,6.22
2022-11-02T09:55:33.443Z,6.68
2022-11-02T09:58:08.959Z,6.28
2022-11-02T10:00:41.940Z,7.38
2022-11-02T10:03:22.038Z,6.05
2022-11-02T10:05:57.339Z,6.65
2022-11-02T10:08:38.543Z,6.60
2022-11-02T10:11:22.021Z,6.15
2022-11-02T10:13:56.941Z,6.70
2022-11-02T10:16:32.003Z,6.97
2022-11-02T10:19:04.384Z,7.32
2022-11-02T10:21:35.436Z,6.47
2022-11-02T10:24:17.636Z,6.80
2022-11-02T10:26:50.096Z,6.32
2022-11-02T10:29:25.347Z,5.93
2022-11-02T10:31:54.953Z,6.07
2022-11-02T10:34:28.313Z,6.88
2022-11-02T10:37:09.040Z,5.97
2022-11-02T10:39:47.299Z,6.63
2022-11-02T10:42:37.130Z,6.22
2022-11-02T10:45:22.395Z,6.45
2022-11-02T10:48:04.401Z,6.40
2022-11-02T10:50:47.800Z,5.68
2022-11-02T10:53:40.003Z,6.70
2022-11-02T10:56:15.835Z,7.00
2022-11-02T10:58:58.462Z,6.72
2022-11-02T11:01:28.404Z,7.07
2022-11-02T11:04:00.514Z,7.88
2022-11-02T11:06:32.385Z,9.10
2022-11-02T11:09:05.172Z,10.23
2022-11-02T11:11:37.105Z,10.98
2022-11-02T11:20:09.264Z,11.05
2022-11-02T11:22:40.350Z,11.20
2022-11-02T11:25:27.430Z,11.88
2022-11-02T11:27:58.729Z,12.95
2022-11-02T11:30:59.660Z,12.10
2022-11-02T11:33:23.171Z,11.05
2022-11-02T11:35:53.585Z,10.07
2022-11-02T11:38:26.282Z,10.77
2022-11-02T11:40:58.802Z,11.05
2022-11-02T11:43:30.426Z,9.98
2022-11-02T11:46:06.358Z,11.43
2022-11-02T11:48:40.186Z,11.48
2022-11-02T11:51:33.888Z,10.85
2022-11-02T11:54:22.338Z,11.80
2022-11-02T11:56:53.336Z,10.23
2022-11-02T11:59:32.223Z,10.80
2022-11-02T12:02:04.144Z,11.23
2022-11-02T12:04:35.713Z,11.02
2022-11-02T12:07:36.807Z,10.63
2022-11-02T12:10:14.933Z,9.10
2022-11-02T12:13:01.891Z,9.82
2022-11-02T12:15:45.576Z,9.25
2022-11-02T12:18:34.586Z,9.13
2022-11-02T12:21:39.646Z,8.68
2022-11-02T12:24:40.291Z,8.98
2022-11-02T12:27:25.307Z,8.15
2022-11-02T12:30:22.492Z,6.72
2022-11-02T12:33:12.997Z,9.23
2022-11-02T12:36:02.167Z,8.13
2022-11-02T12:38:53.746Z,7.75
2022-11-02T12:41:38.967Z,7.63
2022-11-02T12:44:22.333Z,8.32
2022-11-02T12:46:58.506Z,7.50
2022-11-02T12:49:41.965Z,7.57
2022-11-02T12:52:27.953Z,8.50
2022-11-02T12:55:00.514Z,8.18
2022-11-02T12:57:34.445Z,7.55
2022-11-02T13:00:07.130Z,9.38
2022-11-02T13:02:49.133Z,7.75
2022-11-02T13:05:21.460Z,7.20
2022-11-02T13:08:08.275Z,6.72
2022-11-02T13:10:50.677Z,7.55
2022-11-02T13:13:29.644Z,6.95
2022-11-02T13:16:00.370Z,7.10
2022-11-02T13:18:37.331Z,7.80
2022-11-02T13:21:07.962Z,6.95
2022-11-02T13:23:44.412Z,6.30
2022-11-02T13:26:21.850Z,6.25
2022-11-02T13:28:55.106Z,6.57
2022-11-02T13:31:30.073Z,6.57
2022-11-02T13:34:03.550Z,7.38
2022-11-02T13:36:37.284Z,6.35
2022-11-02T13:39:17.914Z,6.70
2022-11-02T13:42:24.277Z,6.55
2022-11-02T13:45:19.994Z,10.05
2022-11-02T13:48:45.295Z,7.03
2022-11-02T13:51:25.193Z,7.10
2022-11-02T13:53:59.716Z,7.72
2022-11-02T13:56:31.350Z,7.53
2022-11-02T13:59:04.661Z,6.45
2022-11-02T14:01:36.633Z,8.02
2022-11-02T14:04:09.141Z,7.28
2022-11-02T14:06:49.842Z,8.13
2022-11-02T14:09:30.439Z,7.85
2022-11-02T14:12:30.022Z,7.45
2022-11-02T14:15:47.777Z,6.82
2022-11-02T14:18:30.978Z,8.60
2022-11-02T14:21:21.515Z,7.38
2022-11-02T14:23:50.864Z,7.40
2022-11-02T14:26:34.608Z,8.35
2022-11-02T14:29:38.553Z,8.50
2022-11-02T14:32:16.686Z,7.47
2022-11-02T14:35:06.874Z,6.78
2022-11-02T14:38:00.857Z,6.90
2022-11-02T14:40:39.754Z,6.30
2022-11-02T14:43:47.655Z,6.80
2022-11-02T14:46:34.466Z,6.97
2022-11-02T14:49:05.568Z,6.22
2022-11-02T14:51:37.637Z,7.00
2022-11-02T14:54:16.089Z,9.20
2022-11-02T14:56:52.128Z,9.65
2022-11-02T14:59:26.616Z,8.95
2022-11-02T15:02:01.012Z,8.07
2022-11-02T15:04:33.116Z,8.20
2022-11-02T15:07:06.828Z,8.20
2022-11-02T15:09:57.323Z,7.60
2022-11-02T15:12:38.694Z,8.23
2022-11-02T15:15:31.393Z,7.82
2022-11-02T15:18:33.403Z,9.43
2022-11-02T15:21:27.126Z,9.05
2022-11-02T15:24:16.962Z,7.90
2022-11-02T15:26:50.751Z,8.75
2022-11-02T15:29:36.548Z,7.55
2022-11-02T15:32:10.000Z,7.63
2022-11-02T15:34:45.137Z,8.48
2022-11-02T15:37:20.363Z,6.78
2022-11-02T15:39:51.412Z,5.80
2022-11-02T15:42:30.761Z,6.28
2022-11-02T15:45:42.108Z,5.45
2022-11-02T15:51:17.691Z,4.78
2022-11-02T15:54:10.524Z,4.55
2022-11-02T15:57:10.500Z,5.07
2022-11-02T16:00:15.142Z,5.07
2022-11-02T16:02:47.863Z,4.80
2022-11-02T16:05:25.707Z,5.45
2022-11-02T16:08:10.766Z,4.80
2022-11-02T16:10:40.453Z,5.07
2022-11-02T16:13:18.343Z,4.65
2022-11-02T16:15:49.011Z,5.05
2022-11-02T16:18:26.614Z,5.10
2022-11-02T16:20:59.662Z,5.55
2022-11-02T16:23:32.761Z,4.78
2022-11-02T16:26:04.594Z,5.93
2022-11-02T16:28:35.545Z,5.38
2022-11-02T16:31:15.714Z,4.88
2022-11-02T16:33:48.995Z,5.03
2022-11-02T16:36:21.118Z,6.18
2022-11-02T16:38:59.094Z,6.07
2022-11-02T16:41:30.322Z,5.25
2022-11-02T16:44:02.592Z,5.30
2022-11-02T16:46:41.136Z,5.25
2022-11-02T16:49:18.571Z,5.30
2022-11-02T16:51:53.112Z,4.85
2022-11-02T16:54:39.435Z,5.28
2022-11-02T16:57:15.166Z,4.93
2022-11-02T16:59:51.883Z,5.75
2022-11-02T17:02:26.670Z,5.95
2022-11-02T17:05:02.461Z,5.65
2022-11-02T17:07:39.796Z,5.38
2022-11-02T17:10:20.291Z,5.50
2022-11-02T17:12:50.706Z,5.80
2022-11-02T17:15:23.146Z,5.60
2022-11-02T17:18:12.542Z,5.55
2022-11-02T17:20:42.592Z,8.02
2022-11-02T17:23:31.403Z,5.50
2022-11-02T17:26:25.603Z,6.55
2022-11-02T17:28:55.999Z,6.05
2022-11-02T17:31:27.390Z,5.70
2022-11-02T17:33:58.191Z,5.68
2022-11-02T17:36:28.210Z,7.53
2022-11-02T17:39:02.258Z,10.43
2022-11-02T17:41:57.854Z,9.32
2022-11-02T17:44:26.968Z,9.10
2022-11-02T17:46:56.936Z,9.10
2022-11-02T17:49:26.043Z,8.68
2022-11-02T17:51:55.345Z,9.13
2022-11-02T17:54:24.517Z,10.43
2022-11-02T17:56:55.183Z,11.57
2022-11-02T17:59:24.187Z,9.98
2022-11-02T18:01:53.819Z,8.50
2022-11-02T18:04:23.158Z,10.18
2022-11-02T18:06:52.476Z,9.82
2022-11-02T18:09:24.109Z,13.65
2022-11-02T18:11:54.843Z,13.93
2022-11-02T18:14:23.943Z,10.27
2022-11-02T18:16:53.507Z,10.63
2022-11-02T18:19:22.857Z,8.13
2022-11-02T18:21:52.328Z,8.18
2022-11-02T18:24:21.575Z,7.65
2022-11-02T18:26:51.097Z,8.00
2022-11-02T18:29:21.606Z,8.32
2022-11-02T18:31:51.313Z,7.70
2022-11-02T18:34:20.340Z,6.72
2022-11-02T18:36:50.084Z,6.15
2022-11-02T18:39:19.383Z,5.95
2022-11-02T18:41:48.817Z,4.70
2022-11-02T18:44:17.946Z,4.82
2022-11-02T18:46:49.051Z,4.60
2022-11-02T18:49:18.060Z,4.35
2022-11-02T18:51:47.770Z,6.07
2022-11-02T18:54:17.035Z,4.75
2022-11-02T18:56:46.606Z,4.95
2022-11-02T18:59:15.665Z,5.10
2022-11-02T19:01:45.232Z,5.20
2022-11-02T19:04:17.826Z,5.97
2022-11-02T19:07:16.202Z,5.65
2022-11-02T19:09:45.795Z,5.80
2022-11-02T19:12:18.335Z,5.30
2022-11-02T19:14:49.627Z,5.25
2022-11-02T19:17:20.002Z,5.95
2022-11-02T19:19:51.755Z,5.85
2022-11-02T19:22:23.226Z,5.53
2022-11-02T19:24:53.229Z,4.70
2022-11-02T19:27:24.089Z,4.93
2022-11-02T19:29:53.636Z,6.15
2022-11-02T19:32:23.165Z,7.75
2022-11-02T19:34:53.593Z,8.82
2022-11-02T19:37:23.200Z,6.32
2022-11-02T19:39:52.348Z,6.45
2022-11-02T19:42:21.671Z,5.90
2022-11-02T19:44:50.826Z,4.60
2022-11-02T19:47:20.280Z,5.68
2022-11-02T19:49:49.435Z,4.63
2022-11-02T19:52:20.365Z,5.00
2022-11-02T19:54:49.531Z,4.45
2022-11-02T19:57:18.932Z,4.43
2022-11-02T19:59:48.108Z,4.10
2022-11-02T20:02:17.516Z,4.32
2022-11-02T20:04:47.532Z,4.10
2022-11-02T20:07:16.862Z,4.32
2022-11-02T20:09:47.458Z,4.85
2022-11-02T20:12:16.745Z,5.00
2022-11-02T20:14:45.930Z,3.97
2022-11-02T20:17:31.364Z,4.15
2022-11-02T20:20:04.855Z,3.75
2022-11-02T20:22:34.232Z,4.93
2022-11-02T20:25:05.517Z,4.82
2022-11-02T20:27:37.193Z,6.75
2022-11-02T20:30:06.943Z,6.38
2022-11-02T20:32:36.542Z,7.70
2022-11-02T20:35:11.000Z,9.32
2022-11-02T20:37:42.745Z,8.88
2022-11-02T20:40:14.087Z,8.70
2022-11-02T20:42:43.665Z,7.45
2022-11-02T20:45:12.777Z,8.35
2022-11-02T20:47:42.070Z,6.28
2022-11-02T20:50:16.488Z,6.95
2022-11-02T20:52:46.953Z,5.85
2022-11-02T20:55:17.672Z,7.00
2022-11-02T20:57:50.111Z,6.13
2022-11-02T21:00:20.306Z,5.35
2022-11-02T21:02:50.112Z,4.45
2022-11-02T21:05:19.363Z,5.00
2022-11-02T21:07:50.231Z,5.30
2022-11-02T21:10:20.756Z,5.85
2022-11-02T21:13:07.871Z,5.45
2022-11-02T21:15:37.447Z,5.35
2022-11-02T21:18:07.064Z,5.05
2022-11-02T21:20:37.845Z,5.68
2022-11-02T21:23:08.262Z,5.80
2022-11-02T21:25:38.986Z,5.60
2022-11-02T21:28:08.267Z,5.82
2022-11-02T21:30:37.319Z,5.03
2022-11-02T21:33:06.935Z,5.03
2022-11-02T21:35:36.377Z,5.53
2022-11-02T21:38:07.852Z,5.10
2022-11-02T21:40:38.568Z,4.88
2022-11-02T21:43:08.234Z,5.22
2022-11-02T21:45:38.189Z,4.40
2022-11-02T21:48:07.868Z,3.58
2022-11-02T21:50:36.900Z,3.72
2022-11-02T21:53:06.503Z,3.67
2022-11-02T21:55:37.280Z,3.42
2022-11-02T21:58:06.667Z,3.08
2022-11-02T22:00:53.062Z,3.05
2022-11-02T22:03:22.612Z,3.00
2022-11-02T22:05:57.403Z,3.65
2022-11-02T22:08:41.628Z,2.78
2022-11-02T22:11:15.297Z,2.55
2022-11-02T22:13:45.501Z,3.20
2022-11-02T22:16:17.606Z,2.05
2022-11-02T22:18:48.759Z,2.80
2022-11-02T22:21:19.471Z,3.03
2022-11-02T22:23:50.244Z,3.92
2022-11-02T22:26:22.316Z,3.05
2022-11-02T22:28:52.474Z,2.67
2022-11-02T22:31:23.936Z,2.45
2022-11-02T22:33:54.907Z,3.05
2022-11-02T22:36:26.408Z,3.42
2022-11-02T22:38:56.114Z,2.95
2022-11-02T22:41:28.700Z,2.38
2022-11-02T22:43:59.974Z,2.40
2022-11-02T22:46:33.353Z,2.13
2022-11-02T22:49:04.741Z,2.13
2022-11-02T22:51:35.777Z,2.13
2022-11-02T22:54:07.457Z,1.95
2022-11-02T22:56:38.038Z,2.42
2022-11-02T22:59:07.785Z,2.42
2022-11-02T23:01:37.974Z,2.28
2022-11-02T23:04:08.538Z,1.80
2022-11-02T23:06:37.703Z,2.13
2022-11-02T23:09:07.266Z,2.15
2022-11-02T23:11:38.009Z,2.20
2022-11-02T23:14:08.719Z,2.03
2022-11-02T23:16:39.848Z,1.60
2022-11-02T23:19:30.629Z,1.80
2022-11-02T23:22:18.853Z,2.00
2022-11-02T23:25:06.831Z,2.05
2022-11-02T23:27:59.527Z,1.58
2022-11-02T23:30:50.499Z,2.28
2022-11-02T23:33:20.246Z,2.03
2022-11-02T23:36:07.074Z,1.75
2022-11-02T23:38:50.139Z,1.70
2022-11-02T23:41:20.579Z,2.80
2022-11-02T23:43:51.212Z,1.90
2022-11-02T23:46:20.570Z,2.10
2022-11-02T23:48:52.819Z,2.17
2022-11-02T23:51:40.673Z,1.65
2022-11-02T23:54:27.498Z,2.00
2022-11-02T23:56:56.904Z,2.50
2022-11-02T23:59:27.383Z,1.83
